createdAt,value
2022-08-30T00:00:40.641Z,1.52
2022-08-30T00:05:37.600Z,1.73
2022-08-30T00:08:05.614Z,1.30
2022-08-30T00:10:34.869Z,1.98
2022-08-30T00:13:02.693Z,1.50
2022-08-30T00:15:31.772Z,1.70
2022-08-30T00:17:59.964Z,1.35
2022-08-30T00:20:33.394Z,1.45
2022-08-30T00:23:01.822Z,1.42
2022-08-30T00:25:29.931Z,1.90
2022-08-30T00:27:59.063Z,1.63
2022-08-30T00:30:27.325Z,1.85
2022-08-30T00:32:55.133Z,1.52
2022-08-30T00:35:23.716Z,1.30
2022-08-30T00:37:51.725Z,1.50
2022-08-30T00:40:24.978Z,1.67
2022-08-30T00:42:59.559Z,1.58
2022-08-30T00:45:31.811Z,1.63
2022-08-30T00:48:00.315Z,2.17
2022-08-30T00:50:31.936Z,2.00
2022-08-30T00:53:03.624Z,2.50
2022-08-30T00:55:33.148Z,2.63
2022-08-30T00:58:05.108Z,2.08
2022-08-30T01:00:34.957Z,1.90
2022-08-30T01:03:02.845Z,2.40
2022-08-30T01:05:31.198Z,1.90
2022-08-30T01:07:58.988Z,1.90
2022-08-30T01:10:26.796Z,2.20
2022-08-30T01:12:54.566Z,1.92
2022-08-30T01:15:22.686Z,1.70
2022-08-30T01:17:52.738Z,1.70
2022-08-30T01:20:25.735Z,1.60
2022-08-30T01:23:06.157Z,1.70
2022-08-30T01:25:37.900Z,2.10
2022-08-30T01:28:08.718Z,2.17
2022-08-30T01:30:39.402Z,1.77
2022-08-30T01:33:09.054Z,2.15
2022-08-30T01:35:45.984Z,1.70
2022-08-30T01:38:16.248Z,2.10
2022-08-30T01:40:44.052Z,1.63
2022-08-30T01:43:13.696Z,1.92
2022-08-30T01:45:41.794Z,1.65
2022-08-30T01:48:12.732Z,2.55
2022-08-30T01:50:41.396Z,1.75
2022-08-30T01:53:13.173Z,2.20
2022-08-30T01:55:43.283Z,1.80
2022-08-30T01:58:11.192Z,2.17
2022-08-30T02:00:39.653Z,2.13
2022-08-30T02:03:07.969Z,2.03
2022-08-30T02:05:36.742Z,1.80
2022-08-30T02:08:05.010Z,1.98
2022-08-30T02:10:33.094Z,1.92
2022-08-30T02:13:03.008Z,2.42
2022-08-30T02:15:30.887Z,1.95
2022-08-30T02:18:10.576Z,1.98
2022-08-30T02:20:39.488Z,2.67
2022-08-30T02:23:07.265Z,3.10
2022-08-30T02:25:35.087Z,2.10
2022-08-30T02:28:04.632Z,2.42
2022-08-30T02:30:32.723Z,2.40
2022-08-30T02:33:00.507Z,2.55
2022-08-30T02:35:28.380Z,2.40
2022-08-30T02:37:56.133Z,2.13
2022-08-30T02:40:24.192Z,2.35
2022-08-30T02:42:52.227Z,2.63
2022-08-30T02:45:21.477Z,2.72
2022-08-30T02:47:49.265Z,3.00
2022-08-30T02:50:17.817Z,2.95
2022-08-30T02:52:48.223Z,2.78
2022-08-30T02:55:16.979Z,3.00
2022-08-30T02:57:44.773Z,3.08
2022-08-30T03:00:16.337Z,3.35
2022-08-30T03:02:45.530Z,2.58
2022-08-30T03:05:15.571Z,2.85
2022-08-30T03:07:45.544Z,3.25
2022-08-30T03:10:13.933Z,2.75
2022-08-30T03:12:42.581Z,4.20
2022-08-30T03:15:12.522Z,3.33
2022-08-30T03:17:40.672Z,2.70
2022-08-30T03:20:12.232Z,2.70
2022-08-30T03:22:40.264Z,2.80
2022-08-30T03:25:09.245Z,2.55
2022-08-30T03:27:37.041Z,2.45
2022-08-30T03:30:06.880Z,2.65
2022-08-30T03:32:35.017Z,3.13
2022-08-30T03:35:02.849Z,3.00
2022-08-30T03:37:31.987Z,3.17
2022-08-30T03:39:59.886Z,2.95
2022-08-30T03:42:27.795Z,2.63
2022-08-30T03:44:55.589Z,3.05
2022-08-30T03:47:23.379Z,3.13
2022-08-30T03:49:51.174Z,3.40
2022-08-30T03:52:18.945Z,2.92
2022-08-30T03:54:48.130Z,2.75
2022-08-30T03:57:20.130Z,2.90
2022-08-30T03:59:52.105Z,3.00
2022-08-30T04:02:19.946Z,2.70
2022-08-30T04:04:48.588Z,3.30
2022-08-30T04:07:16.413Z,2.78
2022-08-30T04:09:44.209Z,2.97
2022-08-30T04:12:13.591Z,3.45
2022-08-30T04:14:46.160Z,3.15
2022-08-30T04:17:13.944Z,2.95
2022-08-30T04:19:41.711Z,3.00
2022-08-30T04:22:09.537Z,2.53
2022-08-30T04:24:38.304Z,2.38
2022-08-30T04:27:06.603Z,2.72
2022-08-30T04:29:36.222Z,2.22
2022-08-30T04:32:04.560Z,3.17
2022-08-30T04:34:32.407Z,2.67
2022-08-30T04:37:00.183Z,2.70
2022-08-30T04:39:27.980Z,2.72
2022-08-30T04:41:55.921Z,3.03
2022-08-30T04:44:25.887Z,2.50
2022-08-30T04:46:55.059Z,3.22
2022-08-30T04:49:22.823Z,3.00
2022-08-30T04:51:50.634Z,3.20
2022-08-30T04:54:18.484Z,3.13
2022-08-30T04:56:46.268Z,2.67
2022-08-30T04:59:14.128Z,2.63
2022-08-30T05:01:45.203Z,2.95
2022-08-30T05:04:15.386Z,2.92
2022-08-30T05:06:43.587Z,3.35
2022-08-30T05:09:11.482Z,3.15
2022-08-30T05:11:39.772Z,3.45
2022-08-30T05:14:07.912Z,3.40
2022-08-30T05:16:35.876Z,3.83
2022-08-30T05:19:03.679Z,3.95
2022-08-30T05:21:32.855Z,3.45
2022-08-30T05:24:01.996Z,3.22
2022-08-30T05:26:32.806Z,3.40
2022-08-30T05:29:00.893Z,3.22
2022-08-30T05:31:32.397Z,2.95
2022-08-30T05:34:00.467Z,3.55
2022-08-30T05:36:30.708Z,3.30
2022-08-30T05:39:00.750Z,3.50
2022-08-30T05:41:29.192Z,3.58
2022-08-30T05:43:58.949Z,3.35
2022-08-30T05:46:29.691Z,3.03
2022-08-30T05:48:58.268Z,3.20
2022-08-30T05:51:28.625Z,3.00
2022-08-30T05:53:57.961Z,3.13
2022-08-30T05:56:29.356Z,2.60
2022-08-30T05:58:57.200Z,2.92
2022-08-30T06:01:27.442Z,3.88
2022-08-30T06:04:00.369Z,4.72
2022-08-30T06:06:32.531Z,3.50
2022-08-30T06:09:00.518Z,4.32
2022-08-30T06:11:30.051Z,4.15
2022-08-30T06:13:58.272Z,3.60
2022-08-30T06:16:27.766Z,3.20
2022-08-30T06:18:57.365Z,3.17
2022-08-30T06:21:28.610Z,3.38
2022-08-30T06:23:56.818Z,3.47
2022-08-30T06:26:26.037Z,4.30
2022-08-30T06:28:55.551Z,3.63
2022-08-30T06:31:24.654Z,3.65
2022-08-30T06:33:53.353Z,3.30
2022-08-30T06:36:23.252Z,2.85
2022-08-30T06:38:52.767Z,3.15
2022-08-30T06:41:22.936Z,4.10
2022-08-30T06:43:51.148Z,4.53
2022-08-30T06:46:23.114Z,5.20
2022-08-30T06:48:51.440Z,4.55
2022-08-30T06:51:21.698Z,3.25
2022-08-30T06:53:51.679Z,3.53
2022-08-30T06:56:22.182Z,3.65
2022-08-30T06:58:50.565Z,3.33
2022-08-30T07:01:22.330Z,2.72
2022-08-30T07:03:50.388Z,2.95
2022-08-30T07:06:18.902Z,2.72
2022-08-30T07:08:47.805Z,3.53
2022-08-30T07:11:15.805Z,3.10
2022-08-30T07:13:45.536Z,3.78
2022-08-30T07:16:15.002Z,4.45
2022-08-30T07:18:54.705Z,5.32
2022-08-30T07:21:25.440Z,5.03
2022-08-30T07:23:54.738Z,5.10
2022-08-30T07:26:25.317Z,4.78
2022-08-30T07:28:56.021Z,4.68
2022-08-30T07:31:25.051Z,5.75
2022-08-30T07:33:54.166Z,4.93
2022-08-30T07:36:22.723Z,5.18
2022-08-30T07:38:51.414Z,5.20
2022-08-30T07:41:22.741Z,4.35
2022-08-30T07:43:51.040Z,4.20
2022-08-30T07:46:20.026Z,3.95
2022-08-30T07:48:48.340Z,4.35
2022-08-30T07:51:20.749Z,3.10
2022-08-30T07:53:48.640Z,4.75
2022-08-30T07:56:16.954Z,2.95
2022-08-30T07:58:44.770Z,3.20
2022-08-30T08:01:14.609Z,2.70
2022-08-30T08:03:43.923Z,2.85
2022-08-30T08:06:13.549Z,3.53
2022-08-30T08:08:43.613Z,3.10
2022-08-30T08:11:16.188Z,2.97
2022-08-30T08:13:53.451Z,3.80
2022-08-30T08:16:23.087Z,3.28
2022-08-30T08:18:51.060Z,2.70
2022-08-30T08:21:18.820Z,3.03
2022-08-30T08:23:48.548Z,3.13
2022-08-30T08:26:16.735Z,3.95
2022-08-30T08:28:46.968Z,2.65
2022-08-30T08:31:16.676Z,3.17
2022-08-30T08:33:44.563Z,3.33
2022-08-30T08:36:12.372Z,2.92
2022-08-30T08:38:40.147Z,3.25
2022-08-30T08:41:13.864Z,2.58
2022-08-30T08:43:42.279Z,2.87
2022-08-30T08:46:17.160Z,3.08
2022-08-30T08:48:59.567Z,2.50
2022-08-30T08:51:50.213Z,2.90
2022-08-30T08:54:25.313Z,2.95
2022-08-30T08:56:54.845Z,3.30
2022-08-30T08:59:22.819Z,3.40
2022-08-30T09:01:51.065Z,2.78
2022-08-30T09:04:24.299Z,3.28
2022-08-30T09:06:55.855Z,2.80
2022-08-30T09:09:28.408Z,2.80
2022-08-30T09:11:57.624Z,2.78
2022-08-30T09:14:30.742Z,2.85
2022-08-30T09:17:02.566Z,2.67
2022-08-30T09:19:37.639Z,2.58
2022-08-30T09:22:23.079Z,2.40
2022-08-30T09:24:52.748Z,2.55
2022-08-30T09:27:25.849Z,3.35
2022-08-30T09:29:58.139Z,2.13
2022-08-30T09:32:28.558Z,2.22
2022-08-30T09:34:56.741Z,2.35
2022-08-30T09:37:28.645Z,2.90
2022-08-30T09:39:56.597Z,2.67
2022-08-30T09:42:28.900Z,2.45
2022-08-30T09:45:10.314Z,2.45
2022-08-30T09:47:40.613Z,2.10
2022-08-30T09:50:12.389Z,2.35
2022-08-30T09:52:55.191Z,2.85
2022-08-30T09:55:41.029Z,2.20
2022-08-30T09:58:14.280Z,2.55
2022-08-30T10:00:48.624Z,2.40
2022-08-30T10:03:36.296Z,2.80
2022-08-30T10:06:16.025Z,2.70
2022-08-30T10:08:56.875Z,2.63
2022-08-30T10:11:31.676Z,2.33
2022-08-30T10:14:10.024Z,3.00
2022-08-30T10:16:50.237Z,2.55
2022-08-30T10:19:30.095Z,2.83
2022-08-30T10:22:02.532Z,3.25
2022-08-30T10:24:34.908Z,2.53
2022-08-30T10:27:08.363Z,2.78
2022-08-30T10:29:43.819Z,1.92
2022-08-30T10:32:21.038Z,2.40
2022-08-30T10:34:55.502Z,2.42
2022-08-30T10:37:26.403Z,1.80
2022-08-30T10:40:00.829Z,2.72
2022-08-30T10:42:39.356Z,2.40
2022-08-30T10:45:14.248Z,2.53
2022-08-30T10:47:48.335Z,2.20
2022-08-30T10:50:22.457Z,2.83
2022-08-30T10:52:55.348Z,2.55
2022-08-30T10:55:27.418Z,2.38
2022-08-30T10:57:59.835Z,2.60
2022-08-30T11:00:32.541Z,2.10
2022-08-30T11:03:33.824Z,6.20
2022-08-30T11:06:15.202Z,3.72
2022-08-30T11:09:08.962Z,2.63
2022-08-30T11:11:51.267Z,2.50
2022-08-30T11:14:21.148Z,3.90
2022-08-30T11:16:57.383Z,2.60
2022-08-30T11:19:32.072Z,2.88
2022-08-30T11:22:13.847Z,2.53
2022-08-30T11:25:09.835Z,3.03
2022-08-30T11:27:58.335Z,2.75
2022-08-30T11:30:51.159Z,2.90
2022-08-30T11:33:46.478Z,2.40
2022-08-30T11:39:51.487Z,2.67
2022-08-30T11:45:35.969Z,2.45
2022-08-30T11:48:05.832Z,2.85
2022-08-30T11:50:44.285Z,2.20
2022-08-30T11:53:23.748Z,3.15
2022-08-30T11:56:01.392Z,2.22
2022-08-30T11:58:44.062Z,2.40
2022-08-30T12:01:40.861Z,2.40
2022-08-30T12:04:15.419Z,2.95
2022-08-30T12:06:54.765Z,2.40
2022-08-30T12:10:02.005Z,2.58
2022-08-30T12:12:48.835Z,2.28
2022-08-30T12:15:54.413Z,2.33
2022-08-30T12:18:29.701Z,3.00
2022-08-30T12:21:04.798Z,2.55
2022-08-30T12:23:44.285Z,2.45
2022-08-30T12:26:20.054Z,2.70
2022-08-30T12:28:50.903Z,2.75
2022-08-30T12:31:22.589Z,3.20
2022-08-30T12:33:54.681Z,2.55
2022-08-30T12:36:35.471Z,2.30
2022-08-30T12:39:16.640Z,2.97
2022-08-30T12:41:45.383Z,2.92
2022-08-30T12:44:17.604Z,3.50
2022-08-30T12:46:49.248Z,2.72
2022-08-30T12:49:18.541Z,2.65
2022-08-30T12:51:46.723Z,2.88
2022-08-30T12:54:20.408Z,2.80
2022-08-30T12:57:01.415Z,2.70
2022-08-30T12:59:58.572Z,2.60
2022-08-30T13:02:29.861Z,2.65
2022-08-30T13:04:58.984Z,2.50
2022-08-30T13:07:32.783Z,2.67
2022-08-30T13:10:07.471Z,3.05
2022-08-30T13:12:38.239Z,2.92
2022-08-30T13:15:16.399Z,2.40
2022-08-30T13:17:44.844Z,2.60
2022-08-30T13:20:26.275Z,2.60
2022-08-30T13:23:04.324Z,2.83
2022-08-30T13:25:33.956Z,2.60
2022-08-30T13:28:03.332Z,2.58
2022-08-30T13:30:32.560Z,2.67
2022-08-30T13:33:02.237Z,2.75
2022-08-30T13:35:30.966Z,2.78
2022-08-30T13:38:00.834Z,2.88
2022-08-30T13:40:28.719Z,2.72
2022-08-30T13:42:59.188Z,2.70
2022-08-30T13:45:43.638Z,2.65
2022-08-30T13:48:12.593Z,2.72
2022-08-30T13:50:40.866Z,2.53
2022-08-30T13:53:09.152Z,3.22
2022-08-30T13:55:37.641Z,2.33
2022-08-30T13:58:07.280Z,2.40
2022-08-30T14:00:38.143Z,2.15
2022-08-30T14:03:06.783Z,3.33
2022-08-30T14:11:18.925Z,2.60
2022-08-30T14:16:38.958Z,2.80
2022-08-30T14:19:07.530Z,2.80
2022-08-30T14:21:35.530Z,2.90
2022-08-30T14:24:06.364Z,2.55
2022-08-30T14:26:38.621Z,2.92
2022-08-30T14:29:10.881Z,2.47
2022-08-30T14:31:39.149Z,2.88
2022-08-30T14:34:07.982Z,2.38
2022-08-30T14:36:38.338Z,2.67
2022-08-30T14:39:09.796Z,3.40
2022-08-30T14:41:43.923Z,2.60
2022-08-30T14:44:14.114Z,3.30
2022-08-30T14:46:42.074Z,2.53
2022-08-30T14:49:11.255Z,2.60
2022-08-30T14:51:39.878Z,2.50
2022-08-30T14:54:08.624Z,2.78
2022-08-30T14:56:38.407Z,2.80
2022-08-30T14:59:06.862Z,2.67
2022-08-30T15:01:39.170Z,2.60
2022-08-30T15:04:08.702Z,2.92
2022-08-30T15:06:37.149Z,2.63
2022-08-30T15:09:05.978Z,2.90
2022-08-30T15:11:34.119Z,3.60
2022-08-30T15:14:02.146Z,2.35
2022-08-30T15:16:33.139Z,2.75
2022-08-30T15:19:03.971Z,3.08
2022-08-30T15:21:34.379Z,6.75
2022-08-30T15:24:05.239Z,2.45
2022-08-30T15:26:34.015Z,2.70
2022-08-30T15:29:01.892Z,2.88
2022-08-30T15:31:32.183Z,2.63
2022-08-30T15:34:01.850Z,3.50
2022-08-30T15:36:31.167Z,3.22
2022-08-30T15:38:59.985Z,2.53
2022-08-30T15:41:29.472Z,3.33
2022-08-30T15:43:59.502Z,2.88
2022-08-30T15:46:30.168Z,3.05
2022-08-30T15:49:01.260Z,3.38
2022-08-30T15:51:41.831Z,3.10
2022-08-30T15:54:11.855Z,4.10
2022-08-30T15:56:47.605Z,3.63
2022-08-30T15:59:17.392Z,3.47
2022-08-30T16:01:47.698Z,3.03
2022-08-30T16:04:17.048Z,3.35
2022-08-30T16:06:48.005Z,2.92
2022-08-30T16:09:15.869Z,3.72
2022-08-30T16:11:44.260Z,2.40
2022-08-30T16:14:13.269Z,2.70
2022-08-30T16:16:42.632Z,2.65
2022-08-30T16:19:11.195Z,2.60
2022-08-30T16:21:41.519Z,2.70
2022-08-30T16:24:13.628Z,3.40
2022-08-30T16:26:42.628Z,3.78
2022-08-30T16:29:12.254Z,3.00
2022-08-30T16:31:40.486Z,2.58
2022-08-30T16:34:08.363Z,3.08
2022-08-30T16:36:37.193Z,2.63
2022-08-30T16:39:08.459Z,2.90
2022-08-30T16:41:38.276Z,4.30
2022-08-30T16:44:07.153Z,3.08
2022-08-30T16:46:37.481Z,2.50
2022-08-30T16:49:06.221Z,2.60
2022-08-30T16:51:37.705Z,3.15
2022-08-30T16:54:08.230Z,2.40
2022-08-30T16:56:38.633Z,2.60
2022-08-30T16:59:11.187Z,2.55
2022-08-30T17:01:42.017Z,2.60
2022-08-30T17:04:11.172Z,2.33
2022-08-30T17:06:41.136Z,2.72
2022-08-30T17:09:10.630Z,2.65
2022-08-30T17:11:41.083Z,3.13
2022-08-30T17:14:09.598Z,2.03
2022-08-30T17:16:38.259Z,2.42
2022-08-30T17:19:08.297Z,2.88
2022-08-30T17:21:36.455Z,2.38
2022-08-30T17:24:07.388Z,2.38
2022-08-30T17:26:37.965Z,2.60
2022-08-30T17:29:07.959Z,4.40
2022-08-30T17:31:37.441Z,3.60
2022-08-30T17:34:05.751Z,2.70
2022-08-30T17:36:36.491Z,2.92
2022-08-30T17:39:10.660Z,3.13
2022-08-30T17:41:41.148Z,3.13
2022-08-30T17:44:17.464Z,3.05
2022-08-30T17:46:45.957Z,2.92
2022-08-30T17:49:15.190Z,2.75
2022-08-30T17:51:43.450Z,2.60
2022-08-30T17:54:11.882Z,2.53
2022-08-30T17:56:39.964Z,2.17
2022-08-30T17:59:09.184Z,2.22
2022-08-30T18:01:38.881Z,2.53
2022-08-30T18:04:06.766Z,2.50
2022-08-30T18:06:35.203Z,2.47
2022-08-30T18:09:03.141Z,2.33
2022-08-30T18:11:30.936Z,2.30
2022-08-30T18:13:59.059Z,2.28
2022-08-30T18:16:27.490Z,2.60
2022-08-30T18:18:57.302Z,2.45
2022-08-30T18:21:25.689Z,2.40
2022-08-30T18:23:56.324Z,2.40
2022-08-30T18:26:24.917Z,1.98
2022-08-30T18:28:53.221Z,2.50
2022-08-30T18:31:21.332Z,2.83
2022-08-30T18:33:49.174Z,2.58
2022-08-30T18:36:18.708Z,2.78
2022-08-30T18:38:46.912Z,2.42
2022-08-30T18:41:15.799Z,2.90
2022-08-30T18:43:44.709Z,3.15
2022-08-30T18:46:14.652Z,2.70
2022-08-30T18:48:43.021Z,3.30
2022-08-30T18:51:12.140Z,2.20
2022-08-30T18:53:42.196Z,2.60
2022-08-30T18:56:10.154Z,2.60
2022-08-30T18:58:40.205Z,2.83
2022-08-30T19:01:13.457Z,2.20
2022-08-30T19:03:41.836Z,1.95
2022-08-30T19:06:12.512Z,1.95
2022-08-30T19:08:41.967Z,2.60
2022-08-30T19:11:13.725Z,2.40
2022-08-30T19:13:41.535Z,2.25
2022-08-30T19:16:12.011Z,2.70
2022-08-30T19:18:41.705Z,2.60
2022-08-30T19:21:13.663Z,2.58
2022-08-30T19:23:43.657Z,2.97
2022-08-30T19:26:11.529Z,3.03
2022-08-30T19:28:39.695Z,3.90
2022-08-30T19:31:08.318Z,2.92
2022-08-30T19:33:36.399Z,2.50
2022-08-30T19:36:06.726Z,3.95
2022-08-30T19:38:36.284Z,2.80
2022-08-30T19:41:06.079Z,2.42
2022-08-30T19:43:33.878Z,2.85
2022-08-30T19:46:01.919Z,2.70
2022-08-30T19:48:32.451Z,2.40
2022-08-30T19:51:01.884Z,2.55
2022-08-30T19:53:30.713Z,2.65
2022-08-30T19:55:58.538Z,2.70
2022-08-30T19:58:30.139Z,2.67
2022-08-30T20:01:01.086Z,2.58
2022-08-30T20:03:40.118Z,2.95
2022-08-30T20:06:08.959Z,3.08
2022-08-30T20:08:37.075Z,2.50
2022-08-30T20:11:05.149Z,2.83
2022-08-30T20:13:34.466Z,2.60
2022-08-30T20:16:02.740Z,2.63
2022-08-30T20:18:32.005Z,2.70
2022-08-30T20:20:59.875Z,2.83
2022-08-30T20:23:30.041Z,2.30
2022-08-30T20:26:04.683Z,2.70
2022-08-30T20:28:33.943Z,2.60
2022-08-30T20:31:04.510Z,2.55
2022-08-30T20:33:33.044Z,2.60
2022-08-30T20:36:02.269Z,2.58
2022-08-30T20:38:30.162Z,6.93
2022-08-30T20:41:00.981Z,3.08
2022-08-30T20:43:30.924Z,2.65
2022-08-30T20:46:00.238Z,2.30
2022-08-30T20:48:28.678Z,2.50
2022-08-30T20:50:56.627Z,2.47
2022-08-30T20:53:24.571Z,2.33
2022-08-30T20:55:54.586Z,2.60
2022-08-30T20:58:22.704Z,2.22
2022-08-30T21:00:53.205Z,2.78
2022-08-30T21:03:27.246Z,1.80
2022-08-30T21:05:57.376Z,2.53
2022-08-30T21:08:25.874Z,2.30
2022-08-30T21:10:55.614Z,2.30
2022-08-30T21:13:23.831Z,2.95
2022-08-30T21:15:57.620Z,2.30
2022-08-30T21:18:32.608Z,2.80
2022-08-30T21:21:00.941Z,2.20
2022-08-30T21:23:28.784Z,2.50
2022-08-30T21:26:00.383Z,2.42
2022-08-30T21:28:28.300Z,2.25
2022-08-30T21:31:04.754Z,2.35
2022-08-30T21:33:33.893Z,2.65
2022-08-30T21:36:19.161Z,2.60
2022-08-30T21:38:47.146Z,2.80
2022-08-30T21:41:15.284Z,2.30
2022-08-30T21:43:43.068Z,2.10
2022-08-30T21:46:11.958Z,2.63
2022-08-30T21:48:41.240Z,2.47
2022-08-30T21:51:10.653Z,2.30
2022-08-30T21:53:38.724Z,2.50
2022-08-30T21:56:13.058Z,2.80
2022-08-30T21:58:43.515Z,2.20
2022-08-30T22:01:13.257Z,2.63
2022-08-30T22:03:42.797Z,2.20
2022-08-30T22:06:11.972Z,2.45
2022-08-30T22:08:41.235Z,2.30
2022-08-30T22:11:09.692Z,2.58
2022-08-30T22:13:39.635Z,2.53
2022-08-30T22:16:08.467Z,2.60
2022-08-30T22:18:37.092Z,2.72
2022-08-30T22:21:07.417Z,2.53
2022-08-30T22:23:38.031Z,2.50
2022-08-30T22:26:07.216Z,2.28
2022-08-30T22:28:35.498Z,2.78
2022-08-30T22:31:05.622Z,2.63
2022-08-30T22:33:33.951Z,2.20
2022-08-30T22:36:08.254Z,2.80
2022-08-30T22:38:36.077Z,2.70
2022-08-30T22:41:04.772Z,2.28
2022-08-30T22:43:32.560Z,2.47
2022-08-30T22:46:00.801Z,2.42
2022-08-30T22:48:28.681Z,2.67
2022-08-30T22:50:56.486Z,2.50
2022-08-30T22:53:25.677Z,2.60
2022-08-30T22:55:53.494Z,2.40
2022-08-30T22:58:21.334Z,2.50
2022-08-30T23:00:54.995Z,2.50
2022-08-30T23:03:23.337Z,2.60
2022-08-30T23:05:51.106Z,2.40
2022-08-30T23:08:18.864Z,2.40
2022-08-30T23:10:48.160Z,2.40
2022-08-30T23:13:15.933Z,2.78
2022-08-30T23:15:43.772Z,2.88
2022-08-30T23:18:11.668Z,2.72
2022-08-30T23:20:39.462Z,2.28
2022-08-30T23:23:06.264Z,2.47
2022-08-30T23:25:52.783Z,2.60
2022-08-30T23:28:40.236Z,2.30
2022-08-30T23:31:30.208Z,2.53
2022-08-30T23:34:15.964Z,2.55
2022-08-30T23:37:01.631Z,2.45
2022-08-30T23:39:47.297Z,2.63
2022-08-30T23:42:32.859Z,2.75
2022-08-30T23:45:19.600Z,3.55
2022-08-30T23:48:04.900Z,2.70
2022-08-30T23:50:50.576Z,2.15
2022-08-30T23:53:35.914Z,2.50
2022-08-30T23:56:21.430Z,2.50
2022-08-30T23:59:06.587Z,2.40
